logo
Rechercher aéroport 
image banner adimage banner adimage banner ad
image banner ad

SJIV - Fazenda Veneza

Situé à Caseara, Brazil

ICAO - SJIV, IATA -

Données fournies par Airmate  

Information générale

Coordonnées: S9°20'18" W49°53'16"
Élévation : 629 feet MSL.
Variation magnétique : -20.952545115° East
Voir autres Aéroports à Tocatins

Données opérationnelles

Special qualification required
Heure actuelle UTC:
Heure actuelle locale:
Météo à : - ( 0 km )
METAR: ZMUB 232100Z VRB02MPS 9999 FEW030CB BKN033 16/14 Q1008 NOSIG RMK QFE649.5 86 MOP
Voir NOTAMs / SUP AIP / TFR affectant cet aéroport [VIEW]
Fréquences de communication: [VIEW]

Pistes:

Identifiant RWYQFULongueur (ft)Largeur (ft)SurfaceLDA (ft)
10360966GRAVEL
28360966GRAVEL

Coordonnées de l'aéroport

Adresse: Caseara Brazil

Vue satellite de SJIV